Time;durP1;ratioP1;P1;durP2;ratioP2;P2;SDS_P1;SDS_P2;PMS_P1;PMS_P2;Temp;Humidity;BMP_temperature;BMP_pressure;BME280_temperature;BME280_humidity;BME280_pressure;Samples;Min_cycle;Max_cycle;Signal;HPM_P1;HPM_P2
2022/12/29 00:00:17;;;;;;;20.50;12.07;;;;;;;;;;2114927;28;20127;-44
2022/12/29 00:01:18;;;;;;;23.38;11.60;;;;;;;;;;2114870;28;20047;-43
2022/12/29 00:02:19;;;;;;;18.63;9.65;;;;;;;;;;2115122;28;20047;-43
2022/12/29 00:03:20;;;;;;;16.70;11.32;;;;;;;;;;2114901;28;20058;-43
2022/12/29 00:04:22;;;;;;;19.85;11.27;;;;;;;;;;2114817;28;20059;-43
2022/12/29 00:05:23;;;;;;;19.90;11.55;;;;;;;;;;2115052;28;20337;-48
2022/12/29 00:06:24;;;;;;;20.10;11.32;;;;;;;;;;2114858;28;20039;-45
2022/12/29 00:07:25;;;;;;;17.25;10.27;;;;;;;;;;2114880;28;20186;-45
2022/12/29 00:08:39;;;;;;;22.67;11.63;;;;;;;;;;2114736;28;20044;-45
2022/12/29 00:09:42;;;;;;;19.83;11.45;;;;;;;;;;2115060;28;20040;-45
2022/12/29 00:10:42;;;;;;;19.02;10.73;;;;;;;;;;2114816;28;20048;-45
2022/12/29 00:11:44;;;;;;;20.88;11.48;;;;;;;;;;2114840;28;20155;-44
2022/12/29 00:15:38;;;;;;;15.85;10.43;;;;;;;;;;2114961;28;20051;-44
2022/12/29 00:16:41;;;;;;;13.43;7.63;;;;;;;;;;2115095;28;20051;-44
2022/12/29 00:17:42;;;;;;;19.52;10.13;;;;;;;;;;2114669;28;20067;-44
2022/12/29 00:18:43;;;;;;;17.83;10.13;;;;;;;;;;2114755;28;20040;-45
2022/12/29 00:35:52;;;;;;;16.85;7.95;;;;;;;;;;2114672;28;19927;-43
2022/12/29 00:36:53;;;;;;;15.02;9.30;;;;;;;;;;2114657;28;20101;-44
2022/12/29 00:44:35;;;;;;;17.05;8.60;;;;;;;;;;2114579;28;20054;-44
2022/12/29 00:45:35;;;;;;;12.30;7.55;;;;;;;;;;2114611;28;20048;-45
2022/12/29 00:46:37;;;;;;;18.55;8.98;;;;;;;;;;2114549;28;20381;-44
2022/12/29 00:47:38;;;;;;;12.48;9.20;;;;;;;;;;2114603;28;20078;-44
2022/12/29 00:49:59;;;;;;;13.30;8.07;;;;;;;;;;2114716;28;20055;-45
2022/12/29 00:51:00;;;;;;;18.20;9.18;;;;;;;;;;2114632;28;20054;-44
2022/12/29 00:52:01;;;;;;;13.57;8.45;;;;;;;;;;2114632;28;20399;-45
2022/12/29 00:53:02;;;;;;;12.73;8.32;;;;;;;;;;2114622;28;20047;-45
2022/12/29 00:54:03;;;;;;;14.00;8.18;;;;;;;;;;2114573;28;20044;-45
2022/12/29 00:55:05;;;;;;;13.40;8.47;;;;;;;;;;2114624;28;20082;-46
2022/12/29 00:56:06;;;;;;;16.90;8.60;;;;;;;;;;2114401;28;20063;-44
2022/12/29 00:57:08;;;;;;;14.93;7.93;;;;;;;;;;2114446;28;20130;-44
2022/12/29 00:58:09;;;;;;;14.32;8.10;;;;;;;;;;2114291;28;20044;-44
2022/12/29 00:59:11;;;;;;;12.80;8.03;;;;;;;;;;2114590;28;20071;-45
2022/12/29 01:00:12;;;;;;;12.85;7.70;;;;;;;;;;2114333;28;20492;-44
2022/12/29 01:01:13;;;;;;;17.20;8.75;;;;;;;;;;2114527;28;20051;-46
2022/12/29 01:02:14;;;;;;;15.60;7.78;;;;;;;;;;2114330;28;20059;-45
2022/12/29 01:03:15;;;;;;;15.23;8.05;;;;;;;;;;2114394;28;20044;-45
2022/12/29 01:04:17;;;;;;;10.82;7.63;;;;;;;;;;2114513;28;20086;-44
2022/12/29 01:05:19;;;;;;;12.15;7.13;;;;;;;;;;2114404;28;20500;-45
2022/12/29 01:06:20;;;;;;;12.73;8.10;;;;;;;;;;2114389;28;20497;-44
2022/12/29 01:07:21;;;;;;;15.57;8.32;;;;;;;;;;2114338;28;20052;-44
2022/12/29 01:08:22;;;;;;;14.82;8.02;;;;;;;;;;2114497;28;20056;-44
2022/12/29 01:10:43;;;;;;;13.02;8.13;;;;;;;;;;2114462;28;20506;-43
2022/12/29 01:11:44;;;;;;;10.50;6.35;;;;;;;;;;2114615;28;20046;-43
2022/12/29 01:12:47;;;;;;;14.43;7.70;;;;;;;;;;2114451;28;20051;-45
2022/12/29 01:13:48;;;;;;;12.25;6.72;;;;;;;;;;2114182;28;20044;-44
2022/12/29 01:14:49;;;;;;;10.97;7.60;;;;;;;;;;2114476;28;20048;-44
2022/12/29 01:15:50;;;;;;;11.85;7.15;;;;;;;;;;2114204;28;20067;-45
2022/12/29 01:16:51;;;;;;;13.57;7.88;;;;;;;;;;2114382;28;20062;-44
2022/12/29 01:17:52;;;;;;;14.75;7.70;;;;;;;;;;2114370;28;20039;-45
2022/12/29 01:18:53;;;;;;;13.57;7.30;;;;;;;;;;2114285;28;20085;-45
2022/12/29 01:19:54;;;;;;;12.00;6.82;;;;;;;;;;2114281;28;20050;-47
2022/12/29 01:21:00;;;;;;;10.83;7.33;;;;;;;;;;2114336;28;20039;-44
2022/12/29 01:22:01;;;;;;;11.50;7.05;;;;;;;;;;2114294;28;20451;-45
2022/12/29 01:23:02;;;;;;;15.20;8.10;;;;;;;;;;2114317;28;20040;-44
2022/12/29 01:24:03;;;;;;;13.10;7.53;;;;;;;;;;2114170;28;20485;-46
2022/12/29 01:25:04;;;;;;;11.37;7.67;;;;;;;;;;2114300;28;20050;-45
2022/12/29 01:26:09;;;;;;;12.90;7.75;;;;;;;;;;2114369;28;20276;-45
2022/12/29 01:27:10;;;;;;;12.30;6.88;;;;;;;;;;2114296;28;20040;-44
2022/12/29 01:28:11;;;;;;;13.05;7.07;;;;;;;;;;2114512;28;20051;-44
2022/12/29 01:29:12;;;;;;;12.50;7.53;;;;;;;;;;2114439;28;20048;-44
2022/12/29 01:30:13;;;;;;;14.55;7.47;;;;;;;;;;2114197;28;20050;-43
2022/12/29 01:31:15;;;;;;;13.20;8.20;;;;;;;;;;2114297;28;20409;-44
2022/12/29 01:32:16;;;;;;;12.45;7.78;;;;;;;;;;2114376;28;20043;-44
2022/12/29 01:33:18;;;;;;;13.15;7.50;;;;;;;;;;2114152;28;20092;-43
2022/12/29 01:34:19;;;;;;;13.07;7.38;;;;;;;;;;2113372;28;20462;-43
2022/12/29 01:35:20;;;;;;;12.23;7.32;;;;;;;;;;2114265;28;20051;-43
2022/12/29 01:36:21;;;;;;;11.15;7.13;;;;;;;;;;2114157;28;20386;-42
2022/12/29 01:37:23;;;;;;;13.25;7.80;;;;;;;;;;2114177;28;20134;-43
2022/12/29 01:38:24;;;;;;;13.60;7.47;;;;;;;;;;2114190;28;20070;-43
2022/12/29 01:39:25;;;;;;;12.93;8.02;;;;;;;;;;2114211;28;20452;-43
2022/12/29 01:40:26;;;;;;;12.02;7.93;;;;;;;;;;2114167;28;20047;-43
2022/12/29 01:41:29;;;;;;;12.73;6.50;;;;;;;;;;2114181;28;20054;-43
2022/12/29 01:42:29;;;;;;;13.93;7.70;;;;;;;;;;2114268;28;20048;-43
2022/12/29 01:43:39;;;;;;;10.10;6.60;;;;;;;;;;2114117;28;20048;-42
2022/12/29 01:44:48;;;;;;;10.82;6.97;;;;;;;;;;2113713;28;20056;-43
2022/12/29 01:45:51;;;;;;;11.63;7.10;;;;;;;;;;2114116;28;20054;-42
2022/12/29 01:46:52;;;;;;;14.93;7.72;;;;;;;;;;2114263;28;20048;-42
2022/12/29 01:47:55;;;;;;;12.17;7.30;;;;;;;;;;2114148;28;20481;-42
2022/12/29 01:48:59;;;;;;;16.30;8.32;;;;;;;;;;2114000;28;20485;-43
2022/12/29 01:50:02;;;;;;;12.07;7.78;;;;;;;;;;2114090;28;20400;-43
2022/12/29 01:51:03;;;;;;;14.38;7.55;;;;;;;;;;2114300;28;20051;-43
2022/12/29 01:52:07;;;;;;;13.57;7.80;;;;;;;;;;2114145;28;20039;-43
2022/12/29 01:53:11;;;;;;;14.48;6.53;;;;;;;;;;2114648;28;20290;-43
2022/12/29 01:54:14;;;;;;;11.38;7.03;;;;;;;;;;2114049;28;20044;-43
2022/12/29 01:55:15;;;;;;;12.35;7.25;;;;;;;;;;2114091;28;20492;-43
2022/12/29 01:56:20;;;;;;;12.27;7.13;;;;;;;;;;2114117;28;20112;-43
2022/12/29 01:57:24;;;;;;;12.48;7.40;;;;;;;;;;2114180;28;20055;-43
2022/12/29 01:58:28;;;;;;;11.95;7.60;;;;;;;;;;2114095;28;20058;-43
2022/12/29 01:59:31;;;;;;;12.70;7.22;;;;;;;;;;2114096;28;20443;-43
2022/12/29 02:00:32;;;;;;;14.98;8.10;;;;;;;;;;2114228;28;20105;-43
2022/12/29 02:01:33;;;;;;;13.50;8.00;;;;;;;;;;2114157;28;20043;-43
2022/12/29 02:02:35;;;;;;;17.50;8.13;;;;;;;;;;2114176;28;20092;-43
2022/12/29 02:03:36;;;;;;;13.73;8.48;;;;;;;;;;2114020;28;20083;-43
2022/12/29 02:04:41;;;;;;;13.05;8.18;;;;;;;;;;2114110;28;20400;-43
2022/12/29 02:05:44;;;;;;;14.23;7.95;;;;;;;;;;2114044;28;20336;-43
2022/12/29 02:06:48;;;;;;;13.35;7.93;;;;;;;;;;2114004;28;20481;-43
2022/12/29 02:07:50;;;;;;;13.60;7.45;;;;;;;;;;2114041;28;20054;-43
2022/12/29 02:08:51;;;;;;;;;;;;;;;;;;2114611;28;20054;-43
2022/12/29 02:09:52;;;;;;;12.95;7.63;;;;;;;;;;2114004;28;20018;-43
2022/12/29 02:10:54;;;;;;;12.55;7.72;;;;;;;;;;2114079;28;20585;-43
2022/12/29 02:11:56;;;;;;;13.18;8.63;;;;;;;;;;2114084;28;20043;-43
2022/12/29 02:12:58;;;;;;;13.30;7.85;;;;;;;;;;2114313;28;20047;-43
2022/12/29 02:13:59;;;;;;;;;;;;;;;;;;2114384;28;20069;-43
2022/12/29 02:15:04;;;;;;;12.10;7.63;;;;;;;;;;2114134;28;19950;-43
2022/12/29 02:16:14;;;;;;;13.68;8.63;;;;;;;;;;2113895;28;20475;-44
2022/12/29 02:17:20;;;;;;;9.52;5.63;;;;;;;;;;2113957;28;20047;-42
2022/12/29 02:18:28;;;;;;;11.57;7.07;;;;;;;;;;2114063;28;20051;-43
2022/12/29 02:19:53;;;;;;;13.30;7.82;;;;;;;;;;2113893;28;20482;-43
2022/12/29 02:21:17;;;;;;;12.95;6.55;;;;;;;;;;2098511;28;20051;-43
2022/12/29 02:22:23;;;;;;;15.05;7.57;;;;;;;;;;2114044;28;20132;-43
2022/12/29 02:23:39;;;;;;;12.38;7.03;;;;;;;;;;2113891;28;20500;-45
2022/12/29 02:24:58;;;;;;;13.27;8.27;;;;;;;;;;2100744;28;20052;-43
2022/12/29 02:26:06;;;;;;;14.52;7.72;;;;;;;;;;2113875;28;20039;-43
2022/12/29 02:27:29;;;;;;;15.00;7.55;;;;;;;;;;2114277;28;20054;-43
2022/12/29 02:28:45;;;;;;;11.77;7.88;;;;;;;;;;2113940;28;20067;-43
2022/12/29 02:29:58;;;;;;;15.05;6.43;;;;;;;;;;2113869;28;20047;-43
2022/12/29 02:31:05;;;;;;;12.20;7.22;;;;;;;;;;2105586;28;20051;-43
2022/12/29 02:32:09;;;;;;;12.35;7.43;;;;;;;;;;2105590;28;20040;-43
2022/12/29 02:33:15;;;;;;;13.75;8.00;;;;;;;;;;2105563;28;20040;-42
2022/12/29 02:34:20;;;;;;;11.98;7.53;;;;;;;;;;2112163;28;20055;-42
2022/12/29 02:35:26;;;;;;;14.23;8.45;;;;;;;;;;2113892;28;20051;-42
2022/12/29 02:36:32;;;;;;;12.70;7.90;;;;;;;;;;2113978;28;20401;-42
2022/12/29 02:37:39;;;;;;;12.63;7.55;;;;;;;;;;2113824;28;20051;-42
2022/12/29 02:38:46;;;;;;;12.27;7.68;;;;;;;;;;2113995;28;20047;-42
2022/12/29 02:39:50;;;;;;;10.95;6.70;;;;;;;;;;2113897;28;20515;-43
2022/12/29 02:40:53;;;;;;;10.73;7.75;;;;;;;;;;2113864;28;20052;-42
2022/12/29 02:41:58;;;;;;;11.90;7.18;;;;;;;;;;2113799;28;20077;-42
2022/12/29 02:43:02;;;;;;;13.02;7.47;;;;;;;;;;2114244;28;20048;-42
2022/12/29 02:44:06;;;;;;;14.05;8.57;;;;;;;;;;2113652;28;20484;-42
2022/12/29 02:45:13;;;;;;;12.00;7.25;;;;;;;;;;2114171;28;20040;-44
2022/12/29 02:46:19;;;;;;;14.23;7.97;;;;;;;;;;2113898;28;20130;-43
2022/12/29 02:47:23;;;;;;;13.15;7.07;;;;;;;;;;2114007;28;20180;-45
2022/12/29 02:48:26;;;;;;;11.48;6.57;;;;;;;;;;2113969;28;20048;-45
2022/12/29 02:49:32;;;;;;;11.50;7.15;;;;;;;;;;2113780;28;20044;-45
2022/12/29 02:50:34;;;;;;;13.88;7.57;;;;;;;;;;2113923;28;20350;-45
2022/12/29 02:51:38;;;;;;;14.52;7.60;;;;;;;;;;2113919;28;20047;-45
2022/12/29 02:52:42;;;;;;;13.00;7.65;;;;;;;;;;2113761;28;20386;-45
2022/12/29 02:55:02;;;;;;;12.38;7.97;;;;;;;;;;2113825;28;20054;-45
2022/12/29 02:56:03;;;;;;;10.07;7.10;;;;;;;;;;2114237;28;20040;-45
2022/12/29 02:57:05;;;;;;;11.93;6.85;;;;;;;;;;2115224;28;20039;-46
2022/12/29 02:58:17;;;;;;;13.75;7.35;;;;;;;;;;2115128;28;20039;-46
2022/12/29 02:59:18;;;;;;;;;;;;;;;;;;2115716;28;20485;-46
2022/12/29 03:00:19;;;;;;;13.85;6.07;;;;;;;;;;2115513;28;19924;-45
2022/12/29 03:01:34;;;;;;;12.00;7.55;;;;;;;;;;2115226;28;20047;-46
2022/12/29 03:02:47;;;;;;;10.85;6.75;;;;;;;;;;2115473;28;20050;-45
2022/12/29 03:03:51;;;;;;;12.73;6.40;;;;;;;;;;2115231;28;20044;-46
2022/12/29 03:05:04;;;;;;;13.07;7.40;;;;;;;;;;2115407;28;20051;-45
2022/12/29 03:06:15;;;;;;;13.73;7.43;;;;;;;;;;2115242;28;20040;-45
2022/12/29 03:07:21;;;;;;;14.25;7.15;;;;;;;;;;2115393;28;20179;-45
2022/12/29 03:08:26;;;;;;;11.02;7.45;;;;;;;;;;2115276;28;20055;-45
2022/12/29 03:09:35;;;;;;;13.80;7.38;;;;;;;;;;2115385;28;20355;-42
2022/12/29 03:10:41;;;;;;;12.07;6.82;;;;;;;;;;2115299;28;20077;-45
2022/12/29 03:12:08;;;;;;;10.23;6.55;;;;;;;;;;2115178;28;20092;-45
2022/12/29 03:16:02;;;;;;;11.57;6.45;;;;;;;;;;2115274;28;20047;-45
2022/12/29 03:17:10;;;;;;;12.10;7.03;;;;;;;;;;2115117;28;20403;-45
2022/12/29 03:18:15;;;;;;;11.10;7.35;;;;;;;;;;2115241;28;20069;-45
2022/12/29 03:19:20;;;;;;;11.98;6.97;;;;;;;;;;2115348;28;20396;-44
2022/12/29 03:20:22;;;;;;;10.32;6.32;;;;;;;;;;2115254;28;20046;-44
2022/12/29 03:22:26;;;;;;;11.70;7.47;;;;;;;;;;2115232;28;20043;-44
2022/12/29 03:22:49;;;;;;;10.27;6.38;;;;;;;;;;2115295;28;20059;-44
2022/12/29 03:23:50;;;;;;;11.93;7.22;;;;;;;;;;2115078;28;20054;-44
2022/12/29 03:24:52;;;;;;;10.45;6.25;;;;;;;;;;2115194;28;20055;-44
2022/12/29 03:25:53;;;;;;;;;;;;;;;;;;2115523;28;20523;-44
2022/12/29 03:26:55;;;;;;;12.75;7.07;;;;;;;;;;2115020;28;19923;-44
2022/12/29 03:28:00;;;;;;;13.02;8.15;;;;;;;;;;2115233;28;20176;-44
2022/12/29 03:29:01;;;;;;;13.52;6.80;;;;;;;;;;2115089;28;20052;-44
2022/12/29 03:30:04;;;;;;;12.13;7.90;;;;;;;;;;2115090;28;20084;-44
2022/12/29 03:31:06;;;;;;;18.65;7.55;;;;;;;;;;2115098;28;20043;-41
2022/12/29 03:32:07;;;;;;;;;;;;;;;;;;2115622;28;20048;-44
2022/12/29 03:33:12;;;;;;;12.90;7.45;;;;;;;;;;2115104;28;20319;-44
2022/12/29 03:34:13;;;;;;;12.70;7.50;;;;;;;;;;2108471;28;20059;-44
2022/12/29 03:35:16;;;;;;;11.02;6.97;;;;;;;;;;2106624;28;20059;-44
2022/12/29 03:36:20;;;;;;;13.55;7.28;;;;;;;;;;2106755;28;20129;-44
2022/12/29 03:37:23;;;;;;;11.35;5.93;;;;;;;;;;2106639;28;20051;-44
2022/12/29 03:38:28;;;;;;;12.05;7.55;;;;;;;;;;2106742;28;20056;-44
2022/12/29 03:39:28;;;;;;;13.27;7.47;;;;;;;;;;2106692;28;20105;-44
2022/12/29 03:40:31;;;;;;;15.17;8.43;;;;;;;;;;2106591;28;20113;-44
2022/12/29 03:41:33;;;;;;;14.65;8.13;;;;;;;;;;2106429;28;20502;-44
2022/12/29 03:42:35;;;;;;;12.40;7.38;;;;;;;;;;2106545;28;20048;-44
2022/12/29 03:43:36;;;;;;;10.88;7.20;;;;;;;;;;2106542;28;20052;-43
2022/12/29 03:44:39;;;;;;;12.65;7.38;;;;;;;;;;2106548;28;20043;-44
2022/12/29 03:45:41;;;;;;;10.25;6.50;;;;;;;;;;2106520;28;20479;-44
2022/12/29 03:46:42;;;;;;;13.55;7.47;;;;;;;;;;2106490;28;20447;-44
2022/12/29 03:47:43;;;;;;;12.43;8.00;;;;;;;;;;2106628;28;20052;-44
2022/12/29 03:48:45;;;;;;;14.27;8.43;;;;;;;;;;2106534;28;20496;-45
2022/12/29 03:49:46;;;;;;;12.95;8.02;;;;;;;;;;2106530;28;20093;-44
2022/12/29 03:50:47;;;;;;;13.27;8.38;;;;;;;;;;2106518;28;20058;-44
2022/12/29 03:51:48;;;;;;;13.55;8.23;;;;;;;;;;2106596;28;20078;-44
2022/12/29 03:52:52;;;;;;;16.58;7.88;;;;;;;;;;2106550;28;20476;-44
2022/12/29 03:53:53;;;;;;;15.88;9.13;;;;;;;;;;2106259;28;20503;-44
2022/12/29 03:54:54;;;;;;;13.85;8.70;;;;;;;;;;2106515;28;20052;-44
2022/12/29 03:55:55;;;;;;;15.13;8.10;;;;;;;;;;2106383;28;20153;-43
2022/12/29 03:56:56;;;;;;;15.05;9.57;;;;;;;;;;2106349;28;20507;-44
2022/12/29 03:57:57;;;;;;;14.82;9.38;;;;;;;;;;2106467;28;20123;-44
2022/12/29 03:58:58;;;;;;;14.18;8.95;;;;;;;;;;2106470;28;20044;-44
2022/12/29 03:59:59;;;;;;;15.45;8.38;;;;;;;;;;2106465;28;20055;-44
2022/12/29 04:01:00;;;;;;;16.15;9.70;;;;;;;;;;2106516;28;20047;-44
2022/12/29 04:02:01;;;;;;;13.60;8.30;;;;;;;;;;2106472;28;20076;-44
2022/12/29 04:03:03;;;;;;;16.63;9.35;;;;;;;;;;2106674;28;20512;-45
2022/12/29 04:04:05;;;;;;;14.60;8.98;;;;;;;;;;2106579;28;20044;-45
2022/12/29 04:05:06;;;;;;;16.38;9.05;;;;;;;;;;2106361;28;20138;-45
2022/12/29 04:06:08;;;;;;;15.98;9.10;;;;;;;;;;2106467;28;20074;-46
2022/12/29 04:07:09;;;;;;;14.60;9.20;;;;;;;;;;2106440;28;20098;-45
2022/12/29 04:08:10;;;;;;;14.25;9.23;;;;;;;;;;2105543;28;20485;-45
2022/12/29 04:09:11;;;;;;;15.35;8.93;;;;;;;;;;2106363;28;20055;-45
2022/12/29 04:10:12;;;;;;;12.43;8.25;;;;;;;;;;2106478;28;20044;-45
2022/12/29 04:11:13;;;;;;;12.53;8.03;;;;;;;;;;2106340;28;20047;-46
2022/12/29 04:12:14;;;;;;;13.15;9.00;;;;;;;;;;2106196;28;20117;-47
2022/12/29 04:13:16;;;;;;;13.10;6.90;;;;;;;;;;2106395;28;20067;-46
2022/12/29 04:14:18;;;;;;;15.90;8.15;;;;;;;;;;2106366;28;20048;-46
2022/12/29 04:15:19;;;;;;;12.73;8.17;;;;;;;;;;2106409;28;20692;-46
2022/12/29 04:16:20;;;;;;;16.48;9.13;;;;;;;;;;2106330;28;20052;-45
2022/12/29 04:17:22;;;;;;;14.82;7.90;;;;;;;;;;2106414;28;20048;-45
2022/12/29 04:18:23;;;;;;;14.82;9.10;;;;;;;;;;2106187;28;20044;-45
2022/12/29 04:19:24;;;;;;;16.27;8.23;;;;;;;;;;2106243;28;20094;-45
2022/12/29 04:21:45;;;;;;;13.75;8.25;;;;;;;;;;2106313;28;20055;-44
2022/12/29 04:22:46;;;;;;;15.68;9.07;;;;;;;;;;2110422;28;20054;-44
2022/12/29 04:23:47;;;;;;;13.50;8.60;;;;;;;;;;2114824;28;20048;-44
2022/12/29 04:24:48;;;;;;;13.32;8.82;;;;;;;;;;2114652;28;20408;-44
2022/12/29 04:25:49;;;;;;;12.57;8.18;;;;;;;;;;2114700;28;20047;-44
2022/12/29 04:26:50;;;;;;;14.40;9.57;;;;;;;;;;2114672;28;20059;-44
2022/12/29 04:27:51;;;;;;;15.07;7.28;;;;;;;;;;2114731;28;20043;-44
2022/12/29 04:28:52;;;;;;;18.13;9.37;;;;;;;;;;2114617;28;20481;-44
2022/12/29 04:29:53;;;;;;;16.02;8.75;;;;;;;;;;2114676;28;20047;-44
2022/12/29 04:30:54;;;;;;;12.38;7.60;;;;;;;;;;2114730;28;20462;-44
2022/12/29 04:31:55;;;;;;;15.30;8.95;;;;;;;;;;2114606;28;20106;-44
2022/12/29 04:32:56;;;;;;;16.25;7.93;;;;;;;;;;2114688;28;20048;-44
2022/12/29 04:33:57;;;;;;;13.77;9.02;;;;;;;;;;2110115;28;20040;-44
2022/12/29 04:34:59;;;;;;;13.43;7.53;;;;;;;;;;2106112;28;20048;-43
2022/12/29 04:36:00;;;;;;;13.30;8.38;;;;;;;;;;2106245;28;20044;-44
2022/12/29 04:37:01;;;;;;;12.70;7.50;;;;;;;;;;2106210;28;20051;-44
2022/12/29 04:38:03;;;;;;;16.88;8.85;;;;;;;;;;2106224;28;20048;-44
2022/12/29 04:39:05;;;;;;;13.05;8.65;;;;;;;;;;2106331;28;20040;-44
2022/12/29 04:40:05;;;;;;;;;;;;;;;;;;2106779;28;20556;-44
2022/12/29 04:41:06;;;;;;;12.23;7.38;;;;;;;;;;2105849;28;19920;-44
2022/12/29 04:42:07;;;;;;;15.05;8.30;;;;;;;;;;2105504;28;20493;-44
2022/12/29 04:43:08;;;;;;;12.57;7.35;;;;;;;;;;2105527;28;20542;-45
2022/12/29 04:44:10;;;;;;;16.15;8.15;;;;;;;;;;2109804;28;20047;-45
2022/12/29 04:45:11;;;;;;;12.15;7.95;;;;;;;;;;2114546;28;20066;-45
2022/12/29 04:46:12;;;;;;;16.80;9.57;;;;;;;;;;2114439;28;20051;-45
2022/12/29 04:47:13;;;;;;;15.63;9.00;;;;;;;;;;2114528;28;20122;-46
2022/12/29 04:48:14;;;;;;;12.70;7.60;;;;;;;;;;2114431;28;20089;-45
2022/12/29 04:49:15;;;;;;;14.95;8.80;;;;;;;;;;2114618;28;20050;-43
2022/12/29 04:50:17;;;;;;;14.87;6.93;;;;;;;;;;2114489;28;20098;-45
2022/12/29 04:51:18;;;;;;;17.58;10.20;;;;;;;;;;2114545;28;20048;-46
2022/12/29 04:52:19;;;;;;;23.98;11.82;;;;;;;;;;2114491;28;20142;-45
2022/12/29 04:53:20;;;;;;;16.30;9.13;;;;;;;;;;2114568;28;20057;-45
2022/12/29 04:54:21;;;;;;;18.15;10.07;;;;;;;;;;2114396;28;20048;-45
2022/12/29 04:55:22;;;;;;;11.38;7.65;;;;;;;;;;2114487;28;20498;-46
2022/12/29 04:56:23;;;;;;;13.02;8.23;;;;;;;;;;2114452;28;20048;-45
2022/12/29 04:57:43;;;;;;;14.98;10.02;;;;;;;;;;2114650;28;20196;-44
2022/12/29 04:58:43;;;;;;;13.70;8.48;;;;;;;;;;2114314;28;20044;-44
2022/12/29 04:59:45;;;;;;;15.13;8.77;;;;;;;;;;2114443;28;20126;-44
2022/12/29 05:00:45;;;;;;;13.98;8.90;;;;;;;;;;2114382;28;20047;-44
2022/12/29 05:01:47;;;;;;;14.55;8.80;;;;;;;;;;2114568;28;20400;-43
2022/12/29 05:02:48;;;;;;;13.23;8.77;;;;;;;;;;2114554;28;20536;-44
2022/12/29 05:03:50;;;;;;;15.95;9.65;;;;;;;;;;2114416;28;20499;-44
2022/12/29 05:04:50;;;;;;;14.38;7.38;;;;;;;;;;2114500;28;20048;-44
2022/12/29 05:05:54;;;;;;;12.93;8.70;;;;;;;;;;2114396;28;20048;-44
2022/12/29 05:06:55;;;;;;;12.68;7.88;;;;;;;;;;2114401;28;20489;-44
2022/12/29 05:07:56;;;;;;;14.23;9.13;;;;;;;;;;2114395;28;20035;-44
2022/12/29 05:08:57;;;;;;;17.02;8.80;;;;;;;;;;2114521;28;20044;-44
2022/12/29 05:09:58;;;;;;;14.53;8.50;;;;;;;;;;2114336;28;20048;-44
2022/12/29 05:10:59;;;;;;;15.52;8.88;;;;;;;;;;2114493;28;20056;-44
2022/12/29 05:12:00;;;;;;;16.70;9.25;;;;;;;;;;2114331;28;20155;-43
2022/12/29 05:13:01;;;;;;;14.60;7.57;;;;;;;;;;2114443;28;20044;-44
2022/12/29 05:14:02;;;;;;;13.68;9.30;;;;;;;;;;2114313;28;20476;-44
2022/12/29 05:15:03;;;;;;;15.38;9.57;;;;;;;;;;2114232;28;20048;-44
2022/12/29 05:16:05;;;;;;;17.88;9.55;;;;;;;;;;2114319;28;20503;-44
2022/12/29 05:18:45;;;;;;;18.90;9.55;;;;;;;;;;2114015;28;20054;-44
2022/12/29 05:19:46;;;;;;;15.02;9.02;;;;;;;;;;2113198;28;20493;-44
2022/12/29 05:20:47;;;;;;;15.63;8.83;;;;;;;;;;2114344;28;20051;-44
2022/12/29 05:21:49;;;;;;;15.48;9.60;;;;;;;;;;2114229;28;20043;-43
2022/12/29 05:22:50;;;;;;;21.70;10.88;;;;;;;;;;2114308;28;20382;-44
2022/12/29 05:23:51;;;;;;;17.48;9.05;;;;;;;;;;2114194;28;20043;-44
2022/12/29 05:24:53;;;;;;;16.90;10.60;;;;;;;;;;2113883;28;20071;-44
2022/12/29 05:25:53;;;;;;;15.38;9.73;;;;;;;;;;2114220;28;20484;-44
2022/12/29 05:26:55;;;;;;;15.15;9.95;;;;;;;;;;2114085;28;20043;-44
2022/12/29 05:27:56;;;;;;;13.52;7.78;;;;;;;;;;2113816;28;20040;-45
2022/12/29 05:28:57;;;;;;;13.80;8.70;;;;;;;;;;2113683;28;20410;-46
2022/12/29 05:29:58;;;;;;;18.70;10.82;;;;;;;;;;2113567;28;20044;-44
2022/12/29 05:30:59;;;;;;;17.45;9.85;;;;;;;;;;2113879;28;20047;-44
2022/12/29 05:32:00;;;;;;;13.35;8.20;;;;;;;;;;2114360;28;20047;-45
2022/12/29 05:33:01;;;;;;;19.50;10.02;;;;;;;;;;2114216;28;20451;-44
2022/12/29 05:34:02;;;;;;;17.55;9.48;;;;;;;;;;2113996;28;20035;-44
2022/12/29 05:35:04;;;;;;;18.43;10.40;;;;;;;;;;2113855;28;20036;-43
2022/12/29 05:36:05;;;;;;;15.20;9.07;;;;;;;;;;2113808;28;20315;-43
2022/12/29 05:37:07;;;;;;;17.77;9.68;;;;;;;;;;2114157;28;20419;-45
2022/12/29 05:38:08;;;;;;;17.38;8.88;;;;;;;;;;2114258;28;20051;-47
2022/12/29 05:39:09;;;;;;;11.63;8.20;;;;;;;;;;2114264;28;20439;-45
2022/12/29 05:40:11;;;;;;;16.88;10.00;;;;;;;;;;2114237;28;20399;-44
2022/12/29 05:41:12;;;;;;;14.32;9.25;;;;;;;;;;2114277;28;20055;-43
2022/12/29 05:42:13;;;;;;;19.58;9.95;;;;;;;;;;2114309;28;20054;-43
2022/12/29 05:43:15;;;;;;;14.85;9.13;;;;;;;;;;2114298;28;20084;-45
2022/12/29 05:44:15;;;;;;;17.20;10.25;;;;;;;;;;2114035;28;20044;-43
2022/12/29 05:45:18;;;;;;;12.80;8.70;;;;;;;;;;2114246;28;20097;-44
2022/12/29 05:46:19;;;;;;;22.33;9.65;;;;;;;;;;2114179;28;20048;-44
2022/12/29 05:47:21;;;;;;;14.75;8.40;;;;;;;;;;2114225;28;20363;-45
2022/12/29 05:48:21;;;;;;;18.90;10.80;;;;;;;;;;2114090;28;20055;-44
2022/12/29 05:49:23;;;;;;;16.17;9.97;;;;;;;;;;2114067;28;20082;-43
2022/12/29 05:50:23;;;;;;;13.63;9.00;;;;;;;;;;2114135;28;20052;-45
2022/12/29 05:53:17;;;;;;;17.92;8.60;;;;;;;;;;2113900;28;20051;-44
2022/12/29 05:54:18;;;;;;;16.17;9.98;;;;;;;;;;2114085;28;20120;-44
2022/12/29 05:55:20;;;;;;;15.50;9.30;;;;;;;;;;2114041;28;20051;-45
2022/12/29 05:56:21;;;;;;;15.80;8.38;;;;;;;;;;2114299;28;20063;-45
2022/12/29 05:57:22;;;;;;;17.08;10.50;;;;;;;;;;2114108;28;20048;-44
2022/12/29 05:58:23;;;;;;;15.77;9.25;;;;;;;;;;2114082;28;20044;-43
2022/12/29 05:59:24;;;;;;;17.97;8.57;;;;;;;;;;2114151;28;20048;-44
2022/12/29 06:00:25;;;;;;;17.15;10.02;;;;;;;;;;2114182;28;20055;-45
2022/12/29 06:01:26;;;;;;;15.50;10.27;;;;;;;;;;2114175;28;20049;-44
2022/12/29 06:02:28;;;;;;;17.23;9.55;;;;;;;;;;2114010;28;20918;-43
2022/12/29 06:03:29;;;;;;;16.35;9.60;;;;;;;;;;2114225;28;20048;-44
2022/12/29 06:04:31;;;;;;;14.43;9.77;;;;;;;;;;2114015;28;20075;-44
2022/12/29 06:05:32;;;;;;;18.73;10.53;;;;;;;;;;2114106;28;20052;-45
2022/12/29 06:06:33;;;;;;;15.45;10.65;;;;;;;;;;2114134;28;20051;-43
2022/12/29 06:07:34;;;;;;;19.70;9.70;;;;;;;;;;2114127;28;20400;-45
2022/12/29 06:08:36;;;;;;;20.85;10.75;;;;;;;;;;2114134;28;20047;-43
2022/12/29 06:09:37;;;;;;;17.52;9.82;;;;;;;;;;2114143;28;20089;-46
2022/12/29 06:10:38;;;;;;;16.13;10.27;;;;;;;;;;2113998;28;20512;-44
2022/12/29 06:11:39;;;;;;;15.13;8.70;;;;;;;;;;2114186;28;20126;-43
2022/12/29 06:12:40;;;;;;;18.10;10.98;;;;;;;;;;2114159;28;20288;-45
2022/12/29 06:13:42;;;;;;;15.47;8.63;;;;;;;;;;2114122;28;20428;-45
2022/12/29 06:14:43;;;;;;;18.90;10.15;;;;;;;;;;2114022;28;20044;-43
2022/12/29 06:15:44;;;;;;;16.15;9.13;;;;;;;;;;2113726;28;20493;-44
2022/12/29 06:16:45;;;;;;;19.70;10.88;;;;;;;;;;2114054;28;20051;-44
2022/12/29 06:17:46;;;;;;;16.52;9.65;;;;;;;;;;2113983;28;20051;-45
2022/12/29 06:18:47;;;;;;;17.38;11.02;;;;;;;;;;2113961;28;20048;-44
2022/12/29 06:19:49;;;;;;;16.10;9.30;;;;;;;;;;2113988;28;20137;-44
2022/12/29 06:20:50;;;;;;;19.85;10.88;;;;;;;;;;2113895;28;20377;-43
2022/12/29 11:51:47;;;;;;;24.31;14.36;;;;;;;;;;4241755;27;20575;-45
2022/12/29 11:52:50;;;;;;;21.17;13.68;;;;;;;;;;2120975;28;20479;-43
2022/12/29 11:53:52;;;;;;;26.75;14.43;;;;;;;;;;2121084;28;20057;-44
2022/12/29 11:54:55;;;;;;;23.17;14.60;;;;;;;;;;2121395;28;20046;-45
2022/12/29 11:55:57;;;;;;;25.73;15.10;;;;;;;;;;2120980;28;20047;-46
2022/12/29 11:56:59;;;;;;;23.58;14.98;;;;;;;;;;2121109;28;20051;-45
2022/12/29 11:58:02;;;;;;;25.02;14.82;;;;;;;;;;2121460;28;20044;-45
2022/12/29 11:59:21;;;;;;;26.90;14.93;;;;;;;;;;2118006;28;20470;-46
2022/12/29 12:00:25;;;;;;;18.35;11.50;;;;;;;;;;2112602;28;20055;-46
2022/12/29 12:01:29;;;;;;;23.63;13.65;;;;;;;;;;2112196;28;20047;-45
2022/12/29 12:02:36;;;;;;;21.15;13.30;;;;;;;;;;2113122;28;20080;-45
2022/12/29 12:03:47;;;;;;;23.33;14.75;;;;;;;;;;2112544;28;20101;-46
2022/12/29 12:04:49;;;;;;;23.25;14.45;;;;;;;;;;2112898;28;20060;-45
2022/12/29 12:05:54;;;;;;;21.98;13.07;;;;;;;;;;2112645;28;20105;-46
2022/12/29 12:06:58;;;;;;;18.92;11.85;;;;;;;;;;2112867;28;20059;-45
2022/12/29 12:08:02;;;;;;;24.60;15.20;;;;;;;;;;2112549;28;20048;-43
2022/12/29 12:09:06;;;;;;;24.75;13.68;;;;;;;;;;2112666;28;20055;-44
2022/12/29 12:10:12;;;;;;;25.98;14.30;;;;;;;;;;2112667;28;20172;-43
2022/12/29 12:11:15;;;;;;;22.98;13.35;;;;;;;;;;2112676;28;20051;-42
2022/12/29 12:12:21;;;;;;;20.23;12.80;;;;;;;;;;2112541;28;20496;-43
2022/12/29 12:13:24;;;;;;;17.35;11.73;;;;;;;;;;2112501;28;20052;-43
2022/12/29 12:14:29;;;;;;;20.67;13.27;;;;;;;;;;2112501;28;20055;-43
2022/12/29 12:15:36;;;;;;;19.02;11.73;;;;;;;;;;2112629;28;20051;-44
2022/12/29 12:16:48;;;;;;;23.58;14.73;;;;;;;;;;2104272;28;20492;-44
2022/12/29 12:17:52;;;;;;;22.38;13.57;;;;;;;;;;2103885;28;20040;-46